This is the latest recevied weather packets stored in our database for station/object E22ZMG-3. If no packets are shown the sender has not sent any weather packets the latest 10 day(s).
| Time | Temp. | Humidity | Pressure | Rain* | Wind** | Luminosity | Snow |
|---|---|---|---|---|---|---|---|
| 1778020136 | 31.67° C | 57% | 975 hPa | - | - | 0 W/m² | - |
| 1778019512 | 30.56° C | 61% | 975 hPa | - | - | 0 W/m² | - |
| 1778018887 | 31.11° C | 60% | 975 hPa | - | - | 0 W/m² | - |
| 1778018263 | 31.11° C | 58% | 975 hPa | - | - | 0 W/m² | - |
| 1778017638 | 31.67° C | 57% | 975 hPa | - | - | 0 W/m² | - |
| 1778017013 | 31.67° C | 57% | 975 hPa | - | - | 0 W/m² | - |
| 1778016388 | 31.67° C | 58% | 975 hPa | - | - | 0 W/m² | - |
| 1778015764 | 31.11° C | 59% | 975 hPa | - | - | 0 W/m² | - |
| 1778015140 | 31.67° C | 56% | 975 hPa | - | - | 0 W/m² | - |
| 1778014515 | 31.67° C | 57% | 975 hPa | - | - | 0 W/m² | - |
| 1778013890 | 30.56° C | 60% | 975 hPa | - | - | 0 W/m² | - |
| 1778013266 | 31.67° C | 56% | 975 hPa | - | - | 0 W/m² | - |
| 1778012640 | 32.22° C | 55% | 975 hPa | - | - | 0 W/m² | - |
| 1778012016 | 32.22° C | 55% | 975 hPa | - | - | 0 W/m² | - |
| 1778011390 | 32.22° C | 55% | 975 hPa | - | - | 0 W/m² | - |
| 1778010766 | 32.22° C | 55% | 975 hPa | - | - | 0 W/m² | - |
| 1778010141 | 31.67° C | 56% | 975 hPa | - | - | 0 W/m² | - |
| 1778009516 | 32.22° C | 55% | 975 hPa | - | - | 0 W/m² | - |
| 1778008891 | 32.78° C | 53% | 975 hPa | - | - | 0 W/m² | - |
| 1778008267 | 31.67° C | 55% | 975 hPa | - | - | 0 W/m² | - |
| 1778007642 | 32.22° C | 54% | 975 hPa | - | - | 0 W/m² | - |
| 1778007018 | 32.78° C | 53% | 975 hPa | - | - | 0 W/m² | - |
| 1778006394 | 32.78° C | 53% | 975 hPa | - | - | 0 W/m² | - |
| 1778005770 | 31.67° C | 54% | 976 hPa | - | - | 0 W/m² | - |
| 1778005145 | 33.33° C | 51% | 976 hPa | - | - | 0 W/m² | - |
* Rain since midnight (hover to see other rain measurements)
** Current wind speed in m/s (hover to see current wind gust speed)